メインページ
METAR-TAF:

METAR-TAF

空港 :

Peace River, アルバータ州, カナダ

緯度: 56-14N, 経度: 117-26W, 海抜: 571m

現時点の気象観測

当レポートは1時間19分前の17:00(UTC)に作成
変向風 2kt
気温 -1°C
湿度 100%
気圧 994 hPa
視程: 24.1km
高度10000ftの雲はほとんどない
高度14000ftの雲は散在している
高度23000ftの雲は散在している

METAR: CYPE 171700Z VRB02KT 15SM FEW100 SCT140 SCT230 M01/M01 A2934 RMK AC2AC2CI1 CI TR VIRGA S SLP964

時間: 11:19 (18:19 UTC)

予報

当レポートは5時間21分前の12:58(UTC)に作成
予報は17日の 13時(UTC)から 18日の 01時(UTC)まで有効
南/南西の風 5kt
視程: 10km
高度5000ftの雲は散在している
高度25000ftの千切れ雲あり
17日の 1800時(UTC)から
西/南西の風 12kt、最大22ktの突風を伴う
視程: 10km
高度25000ftの雲は散在している

TAF: CYPE 171258Z 1713/1801 21005KT WS008/25050KT P6SM SCT050 BKN250 FM171800 24012G22KT P6SM SCT250 RMK NXT FCST BY 171900Z

4,000以上の空港の気象観測と天気予報(METAR報とTAF報)

利用可能な観測所は地図上に黄色い丸と赤い丸で示す。

丸の上にカーソルを重ねると観測所名を参照できる。

次にクリックすると気象観測と天気予報を参照できる。

マップの切り替え:黒色「×」印の緑ボタンをクリックして拡大、「-」印の緑ボタンをクリックして縮小、緑色の三角印をクリックして隣りの地図に切り替え


METAR-TAF: